createdAt,value
2019-03-23T00:00:16.304Z,0.00
2019-03-23T00:01:16.329Z,0.00
2019-03-23T00:02:16.281Z,0.00
2019-03-23T00:03:16.270Z,0.00
2019-03-23T00:04:16.269Z,0.00
2019-03-23T00:05:16.247Z,0.00
2019-03-23T00:06:16.238Z,0.00
2019-03-23T00:07:16.271Z,0.00
2019-03-23T00:08:16.215Z,0.00
2019-03-23T00:09:16.233Z,0.00
2019-03-23T00:10:16.195Z,0.00
2019-03-23T00:11:16.184Z,0.00
2019-03-23T00:12:16.178Z,0.00
2019-03-23T00:13:16.187Z,0.00
2019-03-23T00:14:16.161Z,0.00
2019-03-23T00:15:16.140Z,0.00
2019-03-23T00:16:16.131Z,0.00
2019-03-23T00:17:16.121Z,0.00
2019-03-23T00:18:16.108Z,0.00
2019-03-23T00:19:16.147Z,0.00
2019-03-23T00:20:16.088Z,0.00
2019-03-23T00:21:16.077Z,0.00
2019-03-23T00:22:16.078Z,0.00
2019-03-23T00:23:16.060Z,0.00
2019-03-23T00:24:16.074Z,0.00
2019-03-23T00:25:16.049Z,0.00
2019-03-23T00:26:16.023Z,0.00
2019-03-23T00:27:16.011Z,0.00
2019-03-23T00:28:16.002Z,0.00
2019-03-23T00:29:15.991Z,0.00
2019-03-23T00:30:15.989Z,0.00
2019-03-23T00:31:16.001Z,0.00
2019-03-23T00:32:15.962Z,0.00
2019-03-23T00:33:15.951Z,0.00
2019-03-23T00:34:15.937Z,0.00
2019-03-23T00:35:15.937Z,0.00
2019-03-23T00:36:15.917Z,0.00
2019-03-23T00:37:15.935Z,0.00
2019-03-23T00:38:15.895Z,0.00
2019-03-23T00:39:15.883Z,0.00
2019-03-23T00:40:15.883Z,0.00
2019-03-23T00:41:15.871Z,0.00
2019-03-23T00:42:15.852Z,0.00
2019-03-23T00:43:15.861Z,0.00
2019-03-23T00:44:15.829Z,0.00
2019-03-23T00:45:15.829Z,0.00
2019-03-23T00:46:15.811Z,0.00
2019-03-23T00:47:15.800Z,0.00
2019-03-23T00:48:15.786Z,0.00
2019-03-23T00:49:15.800Z,0.00
2019-03-23T00:50:15.778Z,0.00
2019-03-23T00:51:15.757Z,0.00
2019-03-23T00:52:15.744Z,0.00
2019-03-23T00:53:15.735Z,0.00
2019-03-23T00:54:15.725Z,0.00
2019-03-23T00:55:15.747Z,0.00
2019-03-23T00:56:16.625Z,0.00
2019-03-23T00:57:15.697Z,0.00
2019-03-23T00:58:15.679Z,0.00
2019-03-23T00:59:15.669Z,0.00
2019-03-23T01:00:15.670Z,0.00
2019-03-23T01:01:15.667Z,0.00
2019-03-23T01:02:15.635Z,0.00
2019-03-23T01:03:15.628Z,0.00
2019-03-23T01:04:15.614Z,0.00
2019-03-23T01:05:15.781Z,0.00
2019-03-23T01:06:15.592Z,0.00
2019-03-23T01:07:15.593Z,0.00
2019-03-23T01:08:15.574Z,0.00
2019-03-23T01:09:15.559Z,0.00
2019-03-23T01:10:15.562Z,0.00
2019-03-23T01:11:15.538Z,0.00
2019-03-23T01:12:15.528Z,0.00
2019-03-23T01:13:15.529Z,0.00
2019-03-23T01:14:15.507Z,0.00
2019-03-23T01:15:15.507Z,0.00
2019-03-23T01:16:15.485Z,0.00
2019-03-23T01:17:15.475Z,0.00
2019-03-23T01:18:15.469Z,0.00
2019-03-23T01:19:15.474Z,0.00
2019-03-23T01:20:15.466Z,0.00
2019-03-23T01:21:15.431Z,0.00
2019-03-23T01:22:15.421Z,0.00
2019-03-23T01:23:15.410Z,0.00
2019-03-23T01:24:15.399Z,0.00
2019-03-23T01:25:15.423Z,0.00
2019-03-23T01:26:15.461Z,0.00
2019-03-23T01:27:15.369Z,0.00
2019-03-23T01:28:15.356Z,0.00
2019-03-23T01:29:15.355Z,0.00
2019-03-23T01:30:15.337Z,0.00
2019-03-23T01:31:15.351Z,0.00
2019-03-23T01:32:15.317Z,0.00
2019-03-23T01:33:15.306Z,0.00
2019-03-23T01:34:15.294Z,0.00
2019-03-23T01:35:15.284Z,0.00
2019-03-23T01:36:15.281Z,0.00
2019-03-23T01:37:15.270Z,0.00
2019-03-23T01:38:15.281Z,0.00
2019-03-23T01:39:15.249Z,0.00
2019-03-23T01:40:15.320Z,0.00
2019-03-23T01:41:15.246Z,0.00
2019-03-23T01:42:15.206Z,0.00
2019-03-23T01:43:15.215Z,0.00
2019-03-23T01:44:15.190Z,0.00
2019-03-23T01:45:15.176Z,0.00
2019-03-23T01:46:15.197Z,0.00
2019-03-23T01:47:15.156Z,0.00
2019-03-23T01:48:15.142Z,0.00
2019-03-23T01:49:15.134Z,0.00
2019-03-23T01:50:15.122Z,0.00
2019-03-23T01:51:15.143Z,0.00
2019-03-23T01:52:15.101Z,0.00
2019-03-23T01:53:15.089Z,0.00
2019-03-23T01:54:15.079Z,0.00
2019-03-23T01:55:15.068Z,0.00
2019-03-23T01:56:15.070Z,0.00
2019-03-23T01:57:15.064Z,0.00
2019-03-23T01:58:15.040Z,0.00
2019-03-23T01:59:15.085Z,0.00
2019-03-23T02:00:15.050Z,0.00
2019-03-23T02:01:15.016Z,0.00
2019-03-23T02:02:15.027Z,0.00
2019-03-23T02:03:14.981Z,0.00
2019-03-23T02:04:14.975Z,0.00
2019-03-23T02:05:14.980Z,0.00
2019-03-23T02:06:14.960Z,0.00
2019-03-23T02:07:14.938Z,0.00
2019-03-23T02:08:14.932Z,0.00
2019-03-23T02:09:14.925Z,0.00
2019-03-23T02:10:14.946Z,0.00
2019-03-23T02:11:14.908Z,0.00
2019-03-23T02:12:14.884Z,0.00
2019-03-23T02:13:14.874Z,0.00
2019-03-23T02:14:14.866Z,0.00
2019-03-23T02:15:14.852Z,0.00
2019-03-23T02:16:14.879Z,0.00
2019-03-23T02:17:14.832Z,0.00
2019-03-23T02:18:14.821Z,0.00
2019-03-23T02:19:14.816Z,0.00
2019-03-23T02:20:14.804Z,0.00
2019-03-23T02:21:14.798Z,0.00
2019-03-23T02:22:14.799Z,0.00
2019-03-23T02:23:14.769Z,0.00
2019-03-23T02:24:14.759Z,0.00
2019-03-23T02:25:14.755Z,0.00
2019-03-23T02:26:14.762Z,0.00
2019-03-23T02:27:14.723Z,0.00
2019-03-23T02:28:14.729Z,0.00
2019-03-23T02:29:14.703Z,0.00
2019-03-23T02:30:14.693Z,0.00
2019-03-23T02:31:14.691Z,0.00
2019-03-23T02:32:14.674Z,0.00
2019-03-23T02:33:14.660Z,0.00
2019-03-23T02:34:14.673Z,0.00
2019-03-23T02:35:14.646Z,0.00
2019-03-23T02:36:14.640Z,0.00
2019-03-23T02:37:26.916Z,0.00
2019-03-23T02:38:15.606Z,0.00
2019-03-23T02:39:14.599Z,0.00
2019-03-23T02:40:14.609Z,0.00
2019-03-23T02:41:14.587Z,0.00
2019-03-23T02:42:14.562Z,0.00
2019-03-23T02:43:14.553Z,0.00
2019-03-23T02:44:14.542Z,0.00
2019-03-23T02:45:14.592Z,0.00
2019-03-23T02:46:14.548Z,0.00
2019-03-23T02:47:14.515Z,0.00
2019-03-23T02:48:14.504Z,0.00
2019-03-23T02:49:14.495Z,0.00
2019-03-23T02:50:14.477Z,0.00
2019-03-23T02:51:14.500Z,0.00
2019-03-23T02:52:14.495Z,0.00
2019-03-23T02:53:14.442Z,0.00
2019-03-23T02:54:14.433Z,0.00
2019-03-23T02:55:14.421Z,0.00
2019-03-23T02:56:14.411Z,0.00
2019-03-23T02:57:14.411Z,0.00
2019-03-23T02:58:14.413Z,0.00
2019-03-23T02:59:14.379Z,0.00
2019-03-23T03:00:14.379Z,0.00
2019-03-23T03:01:14.356Z,0.00
2019-03-23T03:02:14.355Z,0.00
2019-03-23T03:03:14.334Z,0.00
2019-03-23T03:04:14.352Z,0.00
2019-03-23T03:05:14.315Z,0.00
2019-03-23T03:06:14.304Z,0.00
2019-03-23T03:07:14.306Z,0.00
2019-03-23T03:08:14.281Z,0.00
2019-03-23T03:09:14.273Z,0.00
2019-03-23T03:10:14.282Z,0.00
2019-03-23T03:11:14.265Z,0.00
2019-03-23T03:12:14.251Z,0.00
2019-03-23T03:13:14.227Z,0.00
2019-03-23T03:14:14.216Z,0.00
2019-03-23T03:15:14.213Z,0.00
2019-03-23T03:16:14.231Z,0.00
2019-03-23T03:17:14.197Z,0.00
2019-03-23T03:18:14.180Z,0.00
2019-03-23T03:19:14.164Z,0.00
2019-03-23T03:20:14.154Z,0.00
2019-03-23T03:21:14.143Z,0.00
2019-03-23T03:22:14.193Z,0.00
2019-03-23T03:23:14.126Z,0.00
2019-03-23T03:24:14.112Z,0.00
2019-03-23T03:25:14.101Z,0.00
2019-03-23T03:26:14.094Z,0.00
2019-03-23T03:27:14.120Z,0.00
2019-03-23T03:28:14.076Z,0.00
2019-03-23T03:29:14.106Z,0.00
2019-03-23T03:30:14.050Z,0.00
2019-03-23T03:31:14.043Z,0.00
2019-03-23T03:32:14.039Z,0.00
2019-03-23T03:33:14.016Z,0.00
2019-03-23T03:34:14.009Z,0.00
2019-03-23T03:35:14.010Z,0.00
2019-03-23T03:36:13.989Z,0.00
2019-03-23T03:37:13.987Z,0.00
2019-03-23T03:38:13.964Z,0.00
2019-03-23T03:39:13.952Z,0.00
2019-03-23T03:40:13.967Z,0.00
2019-03-23T03:41:13.933Z,0.00
2019-03-23T03:42:13.938Z,0.00
2019-03-23T03:43:13.911Z,0.00
2019-03-23T03:44:13.900Z,0.00
2019-03-23T03:45:13.889Z,0.00
2019-03-23T03:46:13.888Z,0.00
2019-03-23T03:47:13.918Z,0.00
2019-03-23T03:48:13.856Z,0.00
2019-03-23T03:49:13.846Z,0.00
2019-03-23T03:50:13.842Z,0.00
2019-03-23T03:51:13.825Z,0.00
2019-03-23T03:52:13.842Z,0.00
2019-03-23T03:53:13.806Z,0.00
2019-03-23T03:54:13.817Z,0.00
2019-03-23T03:55:13.783Z,0.00
2019-03-23T03:56:13.774Z,0.00
2019-03-23T03:57:13.775Z,0.00
2019-03-23T03:58:13.761Z,0.00
2019-03-23T03:59:13.739Z,0.00
2019-03-23T04:00:13.734Z,0.00
2019-03-23T04:01:13.757Z,0.00
2019-03-23T04:02:13.722Z,0.00
2019-03-23T04:03:13.697Z,0.00
2019-03-23T04:04:13.711Z,0.00
2019-03-23T04:05:13.682Z,0.00
2019-03-23T04:06:13.668Z,0.00
2019-03-23T04:07:13.679Z,0.00
2019-03-23T04:08:13.646Z,0.00
2019-03-23T04:09:13.636Z,0.00
2019-03-23T04:10:13.624Z,0.00
2019-03-23T04:11:13.613Z,0.00
2019-03-23T04:12:13.632Z,0.00
2019-03-23T04:13:13.628Z,0.00
2019-03-23T04:14:13.581Z,0.00
2019-03-23T04:15:13.570Z,0.00
2019-03-23T04:16:13.561Z,0.00
2019-03-23T04:17:13.550Z,0.00
2019-03-23T04:18:13.556Z,0.00
2019-03-23T04:19:13.548Z,0.00
2019-03-23T04:20:13.524Z,0.00
2019-03-23T04:21:13.512Z,0.00
2019-03-23T04:22:13.515Z,0.00
2019-03-23T04:23:13.498Z,0.00
2019-03-23T04:24:13.487Z,0.00
2019-03-23T04:25:13.490Z,0.00
2019-03-23T04:26:13.460Z,0.00
2019-03-23T04:27:13.445Z,0.00
2019-03-23T04:28:13.451Z,0.00
2019-03-23T04:29:13.428Z,0.00
2019-03-23T04:30:13.413Z,0.00
2019-03-23T04:31:13.432Z,0.00
2019-03-23T04:32:13.390Z,0.00
2019-03-23T04:33:13.394Z,0.00
2019-03-23T04:34:13.371Z,0.00
2019-03-23T04:35:13.358Z,0.00
2019-03-23T04:36:13.359Z,0.00
2019-03-23T04:37:13.356Z,0.00
2019-03-23T04:38:22.250Z,0.00
2019-03-23T04:39:14.315Z,0.00
2019-03-23T04:40:13.306Z,0.00
2019-03-23T04:41:13.307Z,0.00
2019-03-23T04:42:13.286Z,0.00
2019-03-23T04:43:13.312Z,0.00
2019-03-23T04:44:13.361Z,0.00
2019-03-23T04:45:13.252Z,0.00
2019-03-23T04:46:13.243Z,0.00
2019-03-23T04:47:13.242Z,0.00
2019-03-23T04:48:13.231Z,0.00
2019-03-23T04:49:13.218Z,0.00
2019-03-23T04:50:13.204Z,0.00
2019-03-23T04:51:13.219Z,0.00
2019-03-23T04:52:13.180Z,0.00
2019-03-23T04:53:13.177Z,4.00
2019-03-23T04:54:13.157Z,4.00
2019-03-23T04:55:13.151Z,0.00
2019-03-23T04:56:13.136Z,4.00
2019-03-23T04:57:13.134Z,0.00
2019-03-23T04:58:13.128Z,4.00
2019-03-23T04:59:13.105Z,4.00
2019-03-23T05:00:13.095Z,4.00
2019-03-23T05:01:13.083Z,8.00
2019-03-23T05:02:13.073Z,8.00
2019-03-23T05:03:13.104Z,12.00
2019-03-23T05:04:13.057Z,12.00
2019-03-23T05:05:13.050Z,16.00
2019-03-23T05:06:13.029Z,16.00
2019-03-23T05:07:13.019Z,20.00
2019-03-23T05:08:13.020Z,28.00
2019-03-23T05:09:12.999Z,32.00
2019-03-23T05:10:13.037Z,40.00
2019-03-23T05:11:12.976Z,48.00
2019-03-23T05:12:12.965Z,56.00
2019-03-23T05:13:12.966Z,64.00
2019-03-23T05:14:12.953Z,76.00
2019-03-23T05:15:12.934Z,92.00
2019-03-23T05:16:12.949Z,104.00
2019-03-23T05:17:12.914Z,120.00
2019-03-23T05:18:12.920Z,144.00
2019-03-23T05:19:12.892Z,160.00
2019-03-23T05:20:12.882Z,188.00
2019-03-23T05:21:12.879Z,212.00
2019-03-23T05:22:12.874Z,236.00
2019-03-23T05:23:12.862Z,264.00
2019-03-23T05:24:12.838Z,296.00
2019-03-23T05:25:12.826Z,324.00
2019-03-23T05:26:12.814Z,360.00
2019-03-23T05:27:12.820Z,396.00
2019-03-23T05:28:12.842Z,440.00
2019-03-23T05:29:12.781Z,480.00
2019-03-23T05:30:12.771Z,520.00
2019-03-23T05:31:12.762Z,564.00
2019-03-23T05:32:12.749Z,608.00
2019-03-23T05:33:12.748Z,656.00
2019-03-23T05:34:12.751Z,704.00
2019-03-23T05:35:12.753Z,752.00
2019-03-23T05:36:15.214Z,804.00
2019-03-23T05:37:12.697Z,856.00
2019-03-23T05:38:12.707Z,912.00
2019-03-23T05:39:12.673Z,964.00
2019-03-23T05:40:12.660Z,1020.00
2019-03-23T05:41:12.684Z,1076.00
2019-03-23T05:42:12.641Z,1132.00
2019-03-23T05:43:12.680Z,1188.00
2019-03-23T05:44:12.620Z,1244.00
2019-03-23T05:45:12.609Z,1304.00
2019-03-23T05:46:12.596Z,1364.00
2019-03-23T05:47:12.611Z,1428.00
2019-03-23T05:48:12.587Z,1496.00
2019-03-23T05:49:12.609Z,1556.00
2019-03-23T05:50:12.553Z,1616.00
2019-03-23T05:51:12.543Z,1676.00
2019-03-23T05:52:12.534Z,1736.00
2019-03-23T05:53:12.533Z,1800.00
2019-03-23T05:54:12.529Z,1864.00
2019-03-23T05:55:12.516Z,1932.00
2019-03-23T05:56:12.493Z,1996.00
2019-03-23T05:57:12.483Z,2064.00
2019-03-23T05:58:12.513Z,2124.00
2019-03-23T05:59:12.463Z,2184.00
2019-03-23T06:00:12.449Z,2248.00
2019-03-23T06:01:12.459Z,2320.00
2019-03-23T06:02:12.435Z,2416.00
2019-03-23T06:03:12.419Z,2540.00
2019-03-23T06:04:12.418Z,2652.00
2019-03-23T06:05:12.397Z,2724.00
2019-03-23T06:06:12.386Z,2820.00
2019-03-23T06:07:12.400Z,2924.00
2019-03-23T06:08:12.369Z,3032.00
2019-03-23T06:09:12.370Z,3140.00
2019-03-23T06:10:12.346Z,3252.00
2019-03-23T06:11:12.335Z,3360.00
2019-03-23T06:12:12.322Z,3464.00
2019-03-23T06:13:12.340Z,3564.00
2019-03-23T06:14:12.310Z,3656.00
2019-03-23T06:15:12.289Z,3748.00
2019-03-23T06:16:12.288Z,3832.00
2019-03-23T06:17:12.268Z,3924.00
2019-03-23T06:18:12.269Z,4012.00
2019-03-23T06:19:12.299Z,4096.00
2019-03-23T06:20:12.236Z,4268.00
2019-03-23T06:21:12.227Z,4416.00
2019-03-23T06:22:12.215Z,4400.00
2019-03-23T06:23:12.203Z,4472.00
2019-03-23T06:24:12.222Z,4624.00
2019-03-23T06:25:12.234Z,4772.00
2019-03-23T06:26:12.171Z,4872.00
2019-03-23T06:27:12.162Z,4952.00
2019-03-23T06:28:12.159Z,5032.00
2019-03-23T06:29:12.151Z,5088.00
2019-03-23T06:30:12.131Z,5116.00
2019-03-23T06:31:12.124Z,5188.00
2019-03-23T06:32:12.130Z,5288.00
2019-03-23T06:33:12.116Z,5372.00
2019-03-23T06:34:12.109Z,5444.00
2019-03-23T06:35:12.084Z,5512.00
2019-03-23T06:36:12.066Z,5580.00
2019-03-23T06:37:12.055Z,5648.00
2019-03-23T06:38:12.044Z,5732.00
2019-03-23T06:39:12.088Z,5816.00
2019-03-23T06:40:12.024Z,5896.00
2019-03-23T06:41:12.011Z,5964.00
2019-03-23T06:42:12.000Z,6048.00
2019-03-23T06:43:11.990Z,6176.00
2019-03-23T06:44:11.991Z,6276.00
2019-03-23T06:45:11.991Z,6384.00
2019-03-23T06:46:11.958Z,6480.00
2019-03-23T06:47:11.949Z,6552.00
2019-03-23T06:48:11.937Z,6588.00
2019-03-23T06:49:11.946Z,6776.00
2019-03-23T06:50:11.915Z,7152.00
2019-03-23T06:51:11.929Z,7764.00
2019-03-23T06:52:11.892Z,7984.00
2019-03-23T06:53:11.890Z,8108.00
2019-03-23T06:54:11.889Z,8428.00
2019-03-23T06:55:11.861Z,8484.00
2019-03-23T06:56:11.849Z,8640.00
2019-03-23T06:57:11.865Z,8816.00
2019-03-23T06:58:11.866Z,9012.00
2019-03-23T06:59:11.828Z,9204.00
2019-03-23T07:00:11.806Z,9208.00
2019-03-23T07:01:11.800Z,9152.00
2019-03-23T07:02:11.787Z,9452.00
2019-03-23T07:03:11.773Z,9872.00
2019-03-23T07:04:11.792Z,10132.00
2019-03-23T07:05:11.751Z,10564.00
2019-03-23T07:06:11.744Z,11252.00
2019-03-23T07:07:11.734Z,12052.00
2019-03-23T07:08:11.719Z,11872.00
2019-03-23T07:09:16.084Z,9076.00
2019-03-23T07:10:11.733Z,7960.00
2019-03-23T07:11:11.690Z,8348.00
2019-03-23T07:12:11.678Z,8776.00
2019-03-23T07:13:11.665Z,10056.00
2019-03-23T07:14:11.668Z,11540.00
2019-03-23T07:15:20.099Z,12544.00
2019-03-23T07:16:12.654Z,12144.00
2019-03-23T07:17:11.623Z,9664.00
2019-03-23T07:18:11.609Z,8720.00
2019-03-23T07:19:11.613Z,11320.00
2019-03-23T07:20:11.590Z,13320.00
2019-03-23T07:21:11.589Z,13984.00
2019-03-23T07:22:11.590Z,14496.00
2019-03-23T07:23:11.559Z,14720.00
2019-03-23T07:24:11.557Z,14816.00
2019-03-23T07:25:11.537Z,14656.00
2019-03-23T07:26:11.528Z,14912.00
2019-03-23T07:27:11.516Z,15392.00
2019-03-23T07:28:11.533Z,14944.00
2019-03-23T07:29:11.503Z,12028.00
2019-03-23T07:30:11.480Z,8920.00
2019-03-23T07:31:11.469Z,8372.00
2019-03-23T07:32:11.458Z,8336.00
2019-03-23T07:33:11.450Z,8328.00
2019-03-23T07:34:11.498Z,8320.00
2019-03-23T07:35:11.425Z,8324.00
2019-03-23T07:36:11.414Z,8332.00
2019-03-23T07:37:11.406Z,8352.00
2019-03-23T07:38:11.399Z,8368.00
2019-03-23T07:39:11.395Z,8384.00
2019-03-23T07:40:11.389Z,8396.00
2019-03-23T07:41:11.362Z,8412.00
2019-03-23T07:42:11.349Z,8428.00
2019-03-23T07:43:11.341Z,8440.00
2019-03-23T07:44:11.338Z,8444.00
2019-03-23T07:45:11.333Z,8452.00
2019-03-23T07:46:11.329Z,8464.00
2019-03-23T07:47:11.296Z,8480.00
2019-03-23T07:48:11.291Z,8500.00
2019-03-23T07:49:11.287Z,8516.00
2019-03-23T07:50:11.261Z,8532.00
2019-03-23T07:51:11.255Z,8560.00
2019-03-23T07:52:11.246Z,8588.00
2019-03-23T07:53:11.325Z,8620.00
2019-03-23T07:54:11.250Z,8640.00
2019-03-23T07:55:11.210Z,8656.00
2019-03-23T07:56:11.225Z,8676.00
2019-03-23T07:57:11.185Z,8700.00
2019-03-23T07:58:11.174Z,8728.00
2019-03-23T07:59:11.228Z,8756.00
2019-03-23T08:00:11.164Z,8776.00
2019-03-23T08:01:11.149Z,8792.00
2019-03-23T08:02:11.152Z,8808.00
2019-03-23T08:03:11.121Z,8824.00
2019-03-23T08:04:11.109Z,8844.00
2019-03-23T08:05:11.118Z,8864.00
2019-03-23T08:06:11.087Z,8892.00
2019-03-23T08:07:11.095Z,8912.00
2019-03-23T08:08:11.075Z,8932.00
2019-03-23T08:09:19.986Z,8952.00
2019-03-23T08:10:12.056Z,8976.00
2019-03-23T08:11:11.032Z,9008.00
2019-03-23T08:12:11.020Z,9020.00
2019-03-23T08:13:11.065Z,9040.00
2019-03-23T08:14:11.050Z,9060.00
2019-03-23T08:15:10.999Z,9076.00
2019-03-23T08:16:10.977Z,9108.00
2019-03-23T08:17:10.998Z,9136.00
2019-03-23T08:18:10.960Z,9160.00
2019-03-23T08:19:10.945Z,9188.00
2019-03-23T08:20:10.964Z,9208.00
2019-03-23T08:21:10.924Z,9224.00
2019-03-23T08:22:11.290Z,9256.00
2019-03-23T08:23:10.901Z,9268.00
2019-03-23T08:24:10.889Z,9284.00
2019-03-23T08:25:10.895Z,9308.00
2019-03-23T08:26:10.892Z,9336.00
2019-03-23T08:27:10.863Z,9360.00
2019-03-23T08:28:10.877Z,9392.00
2019-03-23T08:29:10.853Z,9424.00
2019-03-23T08:30:10.842Z,9452.00
2019-03-23T08:31:10.860Z,9488.00
2019-03-23T08:32:10.806Z,9520.00
2019-03-23T08:33:10.791Z,9556.00
2019-03-23T08:34:10.805Z,9580.00
2019-03-23T08:35:10.842Z,9608.00
2019-03-23T08:36:10.777Z,9624.00
2019-03-23T08:37:10.755Z,9640.00
2019-03-23T08:38:10.739Z,9672.00
2019-03-23T08:39:10.728Z,9712.00
2019-03-23T08:40:10.728Z,9740.00
2019-03-23T08:41:10.714Z,9772.00
2019-03-23T08:42:10.722Z,9804.00
2019-03-23T08:43:10.687Z,9844.00
2019-03-23T08:44:10.688Z,9872.00
2019-03-23T08:45:10.684Z,9888.00
2019-03-23T08:46:10.676Z,9920.00
2019-03-23T08:47:10.650Z,9944.00
2019-03-23T08:48:10.640Z,9984.00
2019-03-23T08:49:10.655Z,10016.00
2019-03-23T08:50:10.647Z,10072.00
2019-03-23T08:51:10.603Z,10140.00
2019-03-23T08:52:10.605Z,10224.00
2019-03-23T08:53:10.617Z,10300.00
2019-03-23T08:54:10.583Z,10416.00
2019-03-23T08:55:10.605Z,10564.00
2019-03-23T08:56:10.565Z,10732.00
2019-03-23T08:57:10.539Z,11020.00
2019-03-23T08:58:10.522Z,14384.00
2019-03-23T08:59:10.580Z,33728.00
2019-03-23T09:00:10.571Z,43744.00
2019-03-23T09:01:10.510Z,44576.00
2019-03-23T09:02:10.523Z,44864.00
2019-03-23T09:03:10.470Z,45504.00
2019-03-23T09:04:10.487Z,45728.00
2019-03-23T09:05:10.473Z,45696.00
2019-03-23T09:06:10.441Z,45120.00
2019-03-23T09:07:10.426Z,29376.00
2019-03-23T09:08:10.413Z,13832.00
2019-03-23T09:09:10.403Z,30240.00
2019-03-23T09:10:10.408Z,47008.00
2019-03-23T09:11:20.205Z,47520.00
2019-03-23T09:12:11.411Z,47840.00
2019-03-23T09:13:10.360Z,48224.00
2019-03-23T09:14:10.345Z,48384.00
2019-03-23T09:15:10.346Z,47872.00
2019-03-23T09:16:10.341Z,48128.00
2019-03-23T09:17:10.314Z,49472.00
2019-03-23T09:18:10.307Z,50144.00
2019-03-23T09:19:10.296Z,50368.00
2019-03-23T09:20:10.315Z,49952.00
2019-03-23T09:21:10.316Z,49632.00
2019-03-23T09:22:10.267Z,50336.00
2019-03-23T09:23:10.291Z,51424.00
2019-03-23T09:24:10.243Z,52160.00
2019-03-23T09:25:10.249Z,52128.00
2019-03-23T09:26:10.222Z,49984.00
2019-03-23T09:27:12.483Z,48064.00
2019-03-23T09:28:10.191Z,49856.00
2019-03-23T09:29:10.193Z,53312.00
2019-03-23T09:30:10.199Z,52544.00
2019-03-23T09:31:10.216Z,48928.00
2019-03-23T09:32:10.165Z,52000.00
2019-03-23T09:33:10.199Z,54016.00
2019-03-23T09:34:10.131Z,51264.00
2019-03-23T09:35:10.125Z,51328.00
2019-03-23T09:36:10.113Z,45600.00
2019-03-23T09:37:10.103Z,23424.00
2019-03-23T09:38:10.082Z,21984.00
2019-03-23T09:39:10.085Z,34336.00
2019-03-23T09:40:11.405Z,34240.00
2019-03-23T09:41:10.063Z,26752.00
2019-03-23T09:42:10.058Z,21088.00
2019-03-23T09:43:10.054Z,17664.00
2019-03-23T09:44:10.019Z,17600.00
2019-03-23T09:45:10.065Z,20128.00
2019-03-23T09:46:10.029Z,22304.00
2019-03-23T09:47:09.988Z,22912.00
2019-03-23T09:48:09.974Z,31552.00
2019-03-23T09:49:09.983Z,35360.00
2019-03-23T09:50:09.991Z,34656.00
2019-03-23T09:51:09.976Z,42112.00
2019-03-23T09:52:09.933Z,40736.00
2019-03-23T09:53:09.947Z,41888.00
2019-03-23T09:54:09.941Z,44640.00
2019-03-23T09:55:09.920Z,42784.00
2019-03-23T09:56:09.917Z,47904.00
2019-03-23T09:57:09.900Z,45248.00
2019-03-23T09:58:09.873Z,46240.00
2019-03-23T09:59:09.871Z,35296.00
2019-03-23T10:00:09.846Z,17760.00
2019-03-23T10:01:09.862Z,28864.00
2019-03-23T10:02:09.841Z,42688.00
2019-03-23T10:03:09.814Z,50880.00
2019-03-23T10:04:09.804Z,59040.00
2019-03-23T10:05:09.806Z,60512.00
2019-03-23T10:06:09.807Z,63072.00
2019-03-23T10:07:09.769Z,62912.00
2019-03-23T10:08:09.759Z,59584.00
2019-03-23T10:09:09.781Z,60192.00
2019-03-23T10:10:09.771Z,62400.00
2019-03-23T10:11:09.773Z,60864.00
2019-03-23T10:12:09.715Z,59744.00
2019-03-23T10:13:09.732Z,58752.00
2019-03-23T10:14:09.753Z,53696.00
2019-03-23T10:15:09.696Z,27264.00
2019-03-23T10:16:09.716Z,36320.00
2019-03-23T10:17:09.667Z,62528.00
2019-03-23T10:18:09.662Z,62528.00
2019-03-23T10:19:09.649Z,62432.00
2019-03-23T10:20:09.641Z,62464.00
2019-03-23T10:21:09.666Z,61536.00
2019-03-23T10:22:09.610Z,61760.00
2019-03-23T10:23:09.649Z,61664.00
2019-03-23T10:24:09.592Z,62048.00
2019-03-23T10:25:09.600Z,52832.00
2019-03-23T10:26:09.613Z,27040.00
2019-03-23T10:27:09.583Z,40960.00
2019-03-23T10:28:09.556Z,60288.00
2019-03-23T10:29:09.542Z,60672.00
2019-03-23T10:30:09.533Z,60416.00
2019-03-23T10:31:09.579Z,60032.00
2019-03-23T10:32:09.519Z,61792.00
2019-03-23T10:33:09.594Z,63392.00
2019-03-23T10:34:09.483Z,63296.00
2019-03-23T10:35:09.473Z,63968.00
2019-03-23T10:36:09.480Z,44512.00
2019-03-23T10:37:09.452Z,29760.00
2019-03-23T10:38:09.445Z,54816.00
2019-03-23T10:39:09.430Z,63136.00
2019-03-23T10:40:09.423Z,62496.00
2019-03-23T10:41:09.438Z,58720.00
2019-03-23T10:42:09.406Z,53920.00
2019-03-23T10:43:09.389Z,53696.00
2019-03-23T10:44:09.398Z,59040.00
2019-03-23T10:45:09.387Z,65280.00
2019-03-23T10:46:09.390Z,53952.00
2019-03-23T10:47:09.355Z,31264.00
2019-03-23T10:48:09.360Z,48608.00
2019-03-23T10:49:09.321Z,63264.00
2019-03-23T10:50:09.314Z,63264.00
2019-03-23T10:51:09.341Z,63488.00
2019-03-23T10:52:09.303Z,64928.00
2019-03-23T10:53:09.286Z,63424.00
2019-03-23T10:54:09.292Z,37536.00
2019-03-23T10:55:09.264Z,39584.00
2019-03-23T10:56:09.262Z,63488.00
2019-03-23T10:57:09.247Z,67136.00
2019-03-23T10:58:09.241Z,70208.00
2019-03-23T10:59:09.241Z,70016.00
2019-03-23T11:00:09.213Z,53280.00
2019-03-23T11:01:09.213Z,36736.00
2019-03-23T11:02:09.194Z,58400.00
2019-03-23T11:03:09.194Z,65472.00
2019-03-23T11:04:09.166Z,65504.00
2019-03-23T11:05:09.164Z,63936.00
2019-03-23T11:06:09.199Z,41376.00
2019-03-23T11:07:09.139Z,46368.00
2019-03-23T11:08:09.140Z,70304.00
2019-03-23T11:09:09.123Z,70464.00
2019-03-23T11:10:09.112Z,65056.00
2019-03-23T11:11:09.106Z,41632.00
2019-03-23T11:12:09.088Z,51392.00
2019-03-23T11:13:09.136Z,69600.00
2019-03-23T11:14:09.060Z,62976.00
2019-03-23T11:15:09.058Z,41696.00
2019-03-23T11:16:09.074Z,28768.00
2019-03-23T11:17:09.048Z,34560.00
2019-03-23T11:18:09.033Z,48224.00
2019-03-23T11:19:13.392Z,41472.00
2019-03-23T11:20:08.996Z,42624.00
2019-03-23T11:21:09.018Z,44000.00
2019-03-23T11:22:08.988Z,40704.00
2019-03-23T11:23:08.978Z,60480.00
2019-03-23T11:24:08.964Z,73888.00
2019-03-23T11:25:08.961Z,71616.00
2019-03-23T11:26:08.971Z,71488.00
2019-03-23T11:27:08.941Z,71552.00
2019-03-23T11:28:08.917Z,71872.00
2019-03-23T11:29:08.930Z,71296.00
2019-03-23T11:30:08.895Z,69856.00
2019-03-23T11:31:08.886Z,68576.00
2019-03-23T11:32:08.894Z,69024.00
2019-03-23T11:33:08.868Z,69696.00
2019-03-23T11:34:17.524Z,70368.00
2019-03-23T11:35:09.946Z,70528.00
2019-03-23T11:36:08.852Z,68928.00
2019-03-23T11:37:08.885Z,69408.00
2019-03-23T11:38:08.823Z,70240.00
2019-03-23T11:39:08.847Z,71648.00
2019-03-23T11:40:08.792Z,71360.00
2019-03-23T11:41:08.780Z,70048.00
2019-03-23T11:42:08.822Z,70112.00
2019-03-23T11:43:08.770Z,68096.00
2019-03-23T11:44:08.750Z,68096.00
2019-03-23T11:45:08.743Z,66176.00
2019-03-23T11:46:08.728Z,64736.00
2019-03-23T11:47:08.742Z,65376.00
2019-03-23T11:48:08.709Z,66464.00
2019-03-23T11:49:08.698Z,68576.00
2019-03-23T11:50:08.688Z,69184.00
2019-03-23T11:51:08.680Z,68736.00
2019-03-23T11:52:08.679Z,67648.00
2019-03-23T11:53:08.659Z,67456.00
2019-03-23T11:54:08.648Z,67872.00
2019-03-23T11:55:08.641Z,68736.00
2019-03-23T11:56:08.632Z,70400.00
2019-03-23T11:57:08.637Z,71200.00
2019-03-23T11:58:08.605Z,70496.00
2019-03-23T11:59:08.635Z,70496.00
2019-03-23T12:00:08.614Z,69440.00
2019-03-23T12:01:08.579Z,69760.00
2019-03-23T12:02:08.582Z,67968.00
2019-03-23T12:03:08.558Z,68160.00
2019-03-23T12:04:08.584Z,66880.00
2019-03-23T12:05:08.538Z,67392.00
2019-03-23T12:06:08.543Z,70400.00
2019-03-23T12:07:08.529Z,68576.00
2019-03-23T12:08:08.505Z,69664.00
2019-03-23T12:09:08.501Z,68672.00
2019-03-23T12:10:08.496Z,66912.00
2019-03-23T12:11:08.491Z,66432.00
2019-03-23T12:12:08.512Z,67680.00
2019-03-23T12:13:08.495Z,68768.00
2019-03-23T12:14:08.452Z,68576.00
2019-03-23T12:15:08.449Z,68448.00
2019-03-23T12:16:08.423Z,67328.00
2019-03-23T12:17:08.427Z,69280.00
2019-03-23T12:18:08.415Z,68864.00
2019-03-23T12:19:08.391Z,68320.00
2019-03-23T12:20:08.393Z,68192.00
2019-03-23T12:21:08.374Z,70016.00
2019-03-23T12:22:08.372Z,68448.00
2019-03-23T12:23:08.356Z,65344.00
2019-03-23T12:24:08.346Z,65536.00
2019-03-23T12:25:08.331Z,66752.00
2019-03-23T12:26:08.320Z,51296.00
2019-03-23T12:27:08.320Z,41792.00